Terminal Aerodrome Forecast
Issued by NWS Cleveland, OH

Home | Current Version | Previous Version | Graphics & Text | Print | Product List | Glossary On
Versions: 1 2 3 4 5 6 7 8 9 10 11 12 13 14 15 16 17 18
000
FTUS41 KCLE 041121
TAFMFD
TAF
KMFD 041121Z 0412/0512 VRB03KT P6SM OVC028
     FM041400 13007KT P6SM BKN035 OVC100
     FM042300 12004KT 6SM -RASN BR OVC025
     FM050000 14008KT 3SM -SN BR OVC020
     FM050400 20008KT 6SM -SN BR OVC025
     FM050700 26008KT P6SM OVC025=

USA.gov is the U.S. government's official web portal to all federal, state and local government web resources and services.